sensor_id;sensor_type;location;lat;lon;timestamp;pressure;altitude;pressure_sealevel;temperature;humidity
56668;BME280;42542;48.360;10.958;2022-09-02T00:02:02;96244.03;;;13.68;76.51
56668;BME280;42542;48.360;10.958;2022-09-02T00:05:04;96244.72;;;13.62;76.72
56668;BME280;42542;48.360;10.958;2022-09-02T00:08:06;96254.00;;;13.60;76.99
56668;BME280;42542;48.360;10.958;2022-09-02T00:11:15;96245.63;;;13.55;77.06
56668;BME280;42542;48.360;10.958;2022-09-02T00:14:25;96244.16;;;13.52;77.12
56668;BME280;42542;48.360;10.958;2022-09-02T00:17:27;96238.28;;;13.49;77.31
56668;BME280;42542;48.360;10.958;2022-09-02T00:20:29;96236.16;;;13.44;77.55
56668;BME280;42542;48.360;10.958;2022-09-02T00:23:31;96233.63;;;13.43;77.85
56668;BME280;42542;48.360;10.958;2022-09-02T00:26:34;96233.81;;;13.41;78.05
56668;BME280;42542;48.360;10.958;2022-09-02T00:29:36;96224.09;;;13.40;78.20
56668;BME280;42542;48.360;10.958;2022-09-02T00:32:40;96234.66;;;13.42;78.87
56668;BME280;42542;48.360;10.958;2022-09-02T00:35:42;96231.78;;;13.43;78.53
56668;BME280;42542;48.360;10.958;2022-09-02T00:38:44;96225.41;;;13.44;78.75
56668;BME280;42542;48.360;10.958;2022-09-02T00:41:46;96236.63;;;13.48;78.75
56668;BME280;42542;48.360;10.958;2022-09-02T00:44:48;96225.03;;;13.47;78.34
56668;BME280;42542;48.360;10.958;2022-09-02T00:47:50;96220.31;;;13.49;78.80
56668;BME280;42542;48.360;10.958;2022-09-02T00:50:52;96215.97;;;13.48;78.68
56668;BME280;42542;48.360;10.958;2022-09-02T00:53:54;96221.84;;;13.52;79.06
56668;BME280;42542;48.360;10.958;2022-09-02T00:56:57;96213.94;;;13.50;78.67
56668;BME280;42542;48.360;10.958;2022-09-02T01:03:19;96217.66;;;13.49;78.56
56668;BME280;42542;48.360;10.958;2022-09-02T01:06:23;96216.81;;;13.49;78.57
56668;BME280;42542;48.360;10.958;2022-09-02T01:09:25;96213.50;;;13.47;78.36
56668;BME280;42542;48.360;10.958;2022-09-02T01:12:29;96215.69;;;13.43;78.59
56668;BME280;42542;48.360;10.958;2022-09-02T01:15:33;96212.00;;;13.44;78.43
56668;BME280;42542;48.360;10.958;2022-09-02T01:18:37;96206.13;;;13.41;78.63
56668;BME280;42542;48.360;10.958;2022-09-02T01:21:45;96209.34;;;13.36;79.05
56668;BME280;42542;48.360;10.958;2022-09-02T01:24:47;96210.38;;;13.35;78.57
56668;BME280;42542;48.360;10.958;2022-09-02T01:27:49;96210.53;;;13.34;78.87
56668;BME280;42542;48.360;10.958;2022-09-02T01:30:53;96209.91;;;13.32;78.78
56668;BME280;42542;48.360;10.958;2022-09-02T01:33:55;96203.69;;;13.31;78.51
56668;BME280;42542;48.360;10.958;2022-09-02T01:36:58;96208.22;;;13.31;78.75
56668;BME280;42542;48.360;10.958;2022-09-02T01:40:00;96206.56;;;13.29;78.84
56668;BME280;42542;48.360;10.958;2022-09-02T01:43:08;96215.44;;;13.30;79.02
56668;BME280;42542;48.360;10.958;2022-09-02T01:46:11;96193.84;;;13.23;78.83
56668;BME280;42542;48.360;10.958;2022-09-02T01:49:13;96198.84;;;13.26;79.16
56668;BME280;42542;48.360;10.958;2022-09-02T01:52:16;96201.75;;;13.25;79.03
56668;BME280;42542;48.360;10.958;2022-09-02T01:55:19;96200.22;;;13.22;79.34
56668;BME280;42542;48.360;10.958;2022-09-02T01:58:24;96189.38;;;13.16;79.39
56668;BME280;42542;48.360;10.958;2022-09-02T02:01:25;96193.53;;;13.18;79.47
56668;BME280;42542;48.360;10.958;2022-09-02T02:04:27;96193.91;;;13.15;79.21
56668;BME280;42542;48.360;10.958;2022-09-02T02:07:30;96198.44;;;13.15;79.65
56668;BME280;42542;48.360;10.958;2022-09-02T02:10:32;96205.81;;;13.13;79.58
56668;BME280;42542;48.360;10.958;2022-09-02T02:13:35;96198.94;;;13.10;79.67
56668;BME280;42542;48.360;10.958;2022-09-02T02:16:37;96206.50;;;13.07;79.98
56668;BME280;42542;48.360;10.958;2022-09-02T02:19:39;96196.16;;;13.04;79.96
56668;BME280;42542;48.360;10.958;2022-09-02T02:22:42;96195.31;;;13.03;80.30
56668;BME280;42542;48.360;10.958;2022-09-02T02:25:44;96192.44;;;13.05;80.25
56668;BME280;42542;48.360;10.958;2022-09-02T02:28:45;96189.44;;;13.00;80.29
56668;BME280;42542;48.360;10.958;2022-09-02T02:31:47;96180.94;;;12.96;80.11
56668;BME280;42542;48.360;10.958;2022-09-02T02:34:50;96186.31;;;12.96;80.22
56668;BME280;42542;48.360;10.958;2022-09-02T02:37:53;96185.97;;;12.91;80.68
56668;BME280;42542;48.360;10.958;2022-09-02T02:40:56;96180.16;;;12.87;80.57
56668;BME280;42542;48.360;10.958;2022-09-02T02:43:59;96186.69;;;12.85;80.85
56668;BME280;42542;48.360;10.958;2022-09-02T02:47:01;96172.81;;;12.81;81.26
56668;BME280;42542;48.360;10.958;2022-09-02T02:50:05;96180.84;;;12.81;80.94
56668;BME280;42542;48.360;10.958;2022-09-02T02:53:07;96182.19;;;12.77;81.58
56668;BME280;42542;48.360;10.958;2022-09-02T02:56:14;96185.06;;;12.76;81.47
56668;BME280;42542;48.360;10.958;2022-09-02T02:59:16;96174.69;;;12.73;81.66
56668;BME280;42542;48.360;10.958;2022-09-02T03:02:17;96174.19;;;12.69;82.14
56668;BME280;42542;48.360;10.958;2022-09-02T03:05:20;96174.19;;;12.69;82.11
56668;BME280;42542;48.360;10.958;2022-09-02T03:08:22;96168.19;;;12.67;82.34
56668;BME280;42542;48.360;10.958;2022-09-02T03:11:26;96166.84;;;12.63;82.61
56668;BME280;42542;48.360;10.958;2022-09-02T03:14:29;96160.00;;;12.61;82.49
56668;BME280;42542;48.360;10.958;2022-09-02T03:17:33;96168.25;;;12.59;82.51
56668;BME280;42542;48.360;10.958;2022-09-02T03:20:35;96165.06;;;12.56;82.61
56668;BME280;42542;48.360;10.958;2022-09-02T03:23:40;96166.44;;;12.51;83.29
56668;BME280;42542;48.360;10.958;2022-09-02T03:26:42;96167.44;;;12.50;83.21
56668;BME280;42542;48.360;10.958;2022-09-02T03:29:45;96161.41;;;12.48;83.17
56668;BME280;42542;48.360;10.958;2022-09-02T03:32:48;96160.25;;;12.43;83.18
56668;BME280;42542;48.360;10.958;2022-09-02T03:35:51;96158.41;;;12.43;83.18
56668;BME280;42542;48.360;10.958;2022-09-02T03:38:54;96165.78;;;12.41;83.38
56668;BME280;42542;48.360;10.958;2022-09-02T03:41:56;96161.63;;;12.39;83.54
56668;BME280;42542;48.360;10.958;2022-09-02T03:45:00;96157.28;;;12.38;83.65
56668;BME280;42542;48.360;10.958;2022-09-02T03:48:02;96156.44;;;12.37;83.93
56668;BME280;42542;48.360;10.958;2022-09-02T03:51:10;96149.56;;;12.35;83.76
56668;BME280;42542;48.360;10.958;2022-09-02T03:54:12;96152.63;;;12.32;83.67
56668;BME280;42542;48.360;10.958;2022-09-02T03:57:15;96153.63;;;12.31;83.73
56668;BME280;42542;48.360;10.958;2022-09-02T04:00:20;96151.28;;;12.28;83.62
56668;BME280;42542;48.360;10.958;2022-09-02T04:03:24;96151.97;;;12.22;83.83
56668;BME280;42542;48.360;10.958;2022-09-02T04:06:26;96151.31;;;12.20;83.83
56668;BME280;42542;48.360;10.958;2022-09-02T04:09:35;96150.84;;;12.16;84.18
56668;BME280;42542;48.360;10.958;2022-09-02T04:12:37;96158.03;;;12.16;84.39
56668;BME280;42542;48.360;10.958;2022-09-02T04:15:44;96154.00;;;12.11;84.58
56668;BME280;42542;48.360;10.958;2022-09-02T04:18:50;96150.88;;;12.08;85.17
56668;BME280;42542;48.360;10.958;2022-09-02T04:21:51;96153.72;;;12.06;84.88
56668;BME280;42542;48.360;10.958;2022-09-02T04:29:41;96142.84;;;12.00;85.65
56668;BME280;42542;48.360;10.958;2022-09-02T04:32:44;96145.53;;;12.00;85.73
56668;BME280;42542;48.360;10.958;2022-09-02T04:35:46;96144.19;;;11.96;85.58
56668;BME280;42542;48.360;10.958;2022-09-02T04:38:52;96144.38;;;11.94;85.91
56668;BME280;42542;48.360;10.958;2022-09-02T04:41:57;96139.19;;;11.93;85.88
56668;BME280;42542;48.360;10.958;2022-09-02T04:45:00;96139.34;;;11.91;85.96
56668;BME280;42542;48.360;10.958;2022-09-02T04:48:02;96147.22;;;11.93;86.31
56668;BME280;42542;48.360;10.958;2022-09-02T04:51:06;96137.50;;;11.92;85.97
56668;BME280;42542;48.360;10.958;2022-09-02T04:54:09;96136.00;;;11.89;85.86
56668;BME280;42542;48.360;10.958;2022-09-02T05:06:00;96150.22;;;11.90;86.08
56668;BME280;42542;48.360;10.958;2022-09-02T05:13:48;96146.25;;;11.86;86.22
56668;BME280;42542;48.360;10.958;2022-09-02T05:16:54;96143.19;;;11.89;86.60
56668;BME280;42542;48.360;10.958;2022-09-02T05:19:56;96149.72;;;11.94;86.85
56668;BME280;42542;48.360;10.958;2022-09-02T05:22:58;96151.22;;;11.97;86.62
56668;BME280;42542;48.360;10.958;2022-09-02T05:26:04;96150.03;;;11.99;86.37
56668;BME280;42542;48.360;10.958;2022-09-02T05:29:06;96153.41;;;12.01;86.24
56668;BME280;42542;48.360;10.958;2022-09-02T05:32:11;96152.88;;;12.06;85.97
56668;BME280;42542;48.360;10.958;2022-09-02T05:35:13;96152.69;;;12.07;86.34
56668;BME280;42542;48.360;10.958;2022-09-02T05:38:16;96156.53;;;12.13;86.20
56668;BME280;42542;48.360;10.958;2022-09-02T05:41:22;96146.97;;;12.10;85.85
56668;BME280;42542;48.360;10.958;2022-09-02T05:44:27;96154.00;;;12.20;85.70
56668;BME280;42542;48.360;10.958;2022-09-02T05:47:33;96151.81;;;12.23;85.91
56668;BME280;42542;48.360;10.958;2022-09-02T05:50:36;96140.75;;;12.18;85.92
56668;BME280;42542;48.360;10.958;2022-09-02T05:53:38;96141.72;;;12.25;85.93
56668;BME280;42542;48.360;10.958;2022-09-02T05:56:42;96145.06;;;12.35;86.10
56668;BME280;42542;48.360;10.958;2022-09-02T05:59:48;96141.53;;;12.35;86.22
56668;BME280;42542;48.360;10.958;2022-09-02T06:03:00;96143.16;;;12.44;85.94
56668;BME280;42542;48.360;10.958;2022-09-02T06:06:07;96148.66;;;12.50;85.79
56668;BME280;42542;48.360;10.958;2022-09-02T06:09:18;96146.44;;;12.54;85.37
56668;BME280;42542;48.360;10.958;2022-09-02T06:12:21;96145.78;;;12.60;85.37
56668;BME280;42542;48.360;10.958;2022-09-02T06:15:24;96144.41;;;12.64;85.41
56668;BME280;42542;48.360;10.958;2022-09-02T06:18:29;96153.25;;;12.73;85.34
56668;BME280;42542;48.360;10.958;2022-09-02T06:21:32;96147.34;;;12.77;85.17
56668;BME280;42542;48.360;10.958;2022-09-02T06:24:34;96147.63;;;12.82;84.79
56668;BME280;42542;48.360;10.958;2022-09-02T06:27:41;96143.44;;;12.88;84.94
56668;BME280;42542;48.360;10.958;2022-09-02T06:30:44;96141.69;;;12.95;84.97
56668;BME280;42542;48.360;10.958;2022-09-02T06:33:54;96143.66;;;13.01;84.68
56668;BME280;42542;48.360;10.958;2022-09-02T06:36:57;96146.47;;;13.08;84.39
56668;BME280;42542;48.360;10.958;2022-09-02T06:40:00;96144.59;;;13.16;84.42
56668;BME280;42542;48.360;10.958;2022-09-02T06:43:04;96144.69;;;13.23;83.90
56668;BME280;42542;48.360;10.958;2022-09-02T06:46:23;96141.13;;;13.31;84.62
56668;BME280;42542;48.360;10.958;2022-09-02T06:49:28;96138.16;;;13.40;84.06
56668;BME280;42542;48.360;10.958;2022-09-02T06:52:32;96148.84;;;13.48;83.68
56668;BME280;42542;48.360;10.958;2022-09-02T06:55:37;96144.63;;;13.54;83.56
56668;BME280;42542;48.360;10.958;2022-09-02T06:58:40;96133.75;;;13.62;83.42
56668;BME280;42542;48.360;10.958;2022-09-02T07:01:45;96136.38;;;13.70;83.04
56668;BME280;42542;48.360;10.958;2022-09-02T07:04:50;96140.84;;;13.78;83.07
56668;BME280;42542;48.360;10.958;2022-09-02T07:08:10;96138.72;;;13.88;82.18
56668;BME280;42542;48.360;10.958;2022-09-02T07:11:16;96149.41;;;13.96;81.76
56668;BME280;42542;48.360;10.958;2022-09-02T07:14:21;96144.94;;;14.03;81.94
56668;BME280;42542;48.360;10.958;2022-09-02T07:17:28;96145.03;;;14.10;82.00
56668;BME280;42542;48.360;10.958;2022-09-02T07:20:35;96141.44;;;14.17;81.50
56668;BME280;42542;48.360;10.958;2022-09-02T07:23:38;96135.94;;;14.25;81.27
56668;BME280;42542;48.360;10.958;2022-09-02T07:26:44;96132.50;;;14.31;80.83
56668;BME280;42542;48.360;10.958;2022-09-02T07:29:48;96129.94;;;14.38;81.04
56668;BME280;42542;48.360;10.958;2022-09-02T07:32:51;96135.03;;;14.48;80.56
56668;BME280;42542;48.360;10.958;2022-09-02T07:35:55;96126.84;;;14.56;80.08
56668;BME280;42542;48.360;10.958;2022-09-02T07:38:59;96129.41;;;14.64;79.54
56668;BME280;42542;48.360;10.958;2022-09-02T07:42:02;96132.84;;;14.72;79.45
56668;BME280;42542;48.360;10.958;2022-09-02T07:45:11;96137.91;;;14.82;79.20
56668;BME280;42542;48.360;10.958;2022-09-02T07:48:15;96131.59;;;14.90;78.87
56668;BME280;42542;48.360;10.958;2022-09-02T07:51:18;96114.22;;;14.92;78.69
56668;BME280;42542;48.360;10.958;2022-09-02T07:54:23;96133.66;;;15.09;77.74
56668;BME280;42542;48.360;10.958;2022-09-02T07:57:28;96128.13;;;15.17;77.82
56668;BME280;42542;48.360;10.958;2022-09-02T08:00:30;96125.97;;;15.27;77.57
56668;BME280;42542;48.360;10.958;2022-09-02T08:03:40;96128.72;;;15.34;76.48
56668;BME280;42542;48.360;10.958;2022-09-02T08:06:43;96131.25;;;15.42;74.77
56668;BME280;42542;48.360;10.958;2022-09-02T08:09:45;96127.41;;;15.51;74.27
56668;BME280;42542;48.360;10.958;2022-09-02T08:12:47;96121.06;;;15.58;73.23
56668;BME280;42542;48.360;10.958;2022-09-02T08:15:48;96125.47;;;15.66;72.25
56668;BME280;42542;48.360;10.958;2022-09-02T08:18:51;96122.00;;;15.72;72.20
56668;BME280;42542;48.360;10.958;2022-09-02T08:21:53;96122.50;;;15.82;72.19
56668;BME280;42542;48.360;10.958;2022-09-02T08:24:55;96123.38;;;15.89;71.52
56668;BME280;42542;48.360;10.958;2022-09-02T08:27:57;96122.59;;;15.95;70.59
56668;BME280;42542;48.360;10.958;2022-09-02T08:31:04;96110.13;;;15.94;69.71
56668;BME280;42542;48.360;10.958;2022-09-02T08:34:06;96107.47;;;16.01;69.28
56668;BME280;42542;48.360;10.958;2022-09-02T08:37:09;96119.59;;;16.12;67.90
56668;BME280;42542;48.360;10.958;2022-09-02T08:40:22;96116.28;;;16.16;67.08
56668;BME280;42542;48.360;10.958;2022-09-02T08:43:29;96116.13;;;16.24;67.45
56668;BME280;42542;48.360;10.958;2022-09-02T08:46:37;96113.91;;;16.34;65.75
56668;BME280;42542;48.360;10.958;2022-09-02T08:49:47;96118.72;;;16.46;63.62
56668;BME280;42542;48.360;10.958;2022-09-02T08:56:05;96113.66;;;16.70;62.38
56668;BME280;42542;48.360;10.958;2022-09-02T08:59:11;96118.50;;;16.95;62.79
56668;BME280;42542;48.360;10.958;2022-09-02T09:06:08;96115.44;;;17.37;57.75
56668;BME280;42542;48.360;10.958;2022-09-02T09:22:33;96110.72;;;17.79;52.18
56668;BME280;42542;48.360;10.958;2022-09-02T09:25:37;96099.06;;;17.91;53.47
56668;BME280;42542;48.360;10.958;2022-09-02T09:28:41;96108.38;;;18.02;51.65
56668;BME280;42542;48.360;10.958;2022-09-02T09:31:47;96088.59;;;18.08;54.86
56668;BME280;42542;48.360;10.958;2022-09-02T09:35:00;96091.31;;;18.15;55.94
56668;BME280;42542;48.360;10.958;2022-09-02T09:38:11;96089.00;;;18.18;53.88
56668;BME280;42542;48.360;10.958;2022-09-02T09:41:16;96091.28;;;18.28;52.64
56668;BME280;42542;48.360;10.958;2022-09-02T09:47:42;96085.63;;;18.36;52.46
56668;BME280;42542;48.360;10.958;2022-09-02T09:50:46;96082.06;;;18.42;50.11
56668;BME280;42542;48.360;10.958;2022-09-02T09:53:48;96078.91;;;18.45;49.75
56668;BME280;42542;48.360;10.958;2022-09-02T09:56:51;96072.25;;;18.48;50.66
56668;BME280;42542;48.360;10.958;2022-09-02T09:59:55;96073.47;;;18.65;49.31
56668;BME280;42542;48.360;10.958;2022-09-02T10:03:00;96080.31;;;18.67;49.77
56668;BME280;42542;48.360;10.958;2022-09-02T10:09:30;96081.13;;;18.75;49.13
56668;BME280;42542;48.360;10.958;2022-09-02T10:12:32;96083.19;;;18.79;48.05
56668;BME280;42542;48.360;10.958;2022-09-02T10:15:45;96078.91;;;18.96;47.23
56668;BME280;42542;48.360;10.958;2022-09-02T10:35:31;96069.31;;;19.00;43.52
56668;BME280;42542;48.360;10.958;2022-09-02T10:38:41;96068.81;;;19.10;44.10
56668;BME280;42542;48.360;10.958;2022-09-02T10:41:44;96066.06;;;19.17;41.73
56668;BME280;42542;48.360;10.958;2022-09-02T10:44:56;96072.47;;;19.29;41.24
56668;BME280;42542;48.360;10.958;2022-09-02T10:51:32;96050.72;;;19.35;43.09
56668;BME280;42542;48.360;10.958;2022-09-02T10:55:01;96045.88;;;19.44;43.01
56668;BME280;42542;48.360;10.958;2022-09-02T10:58:18;96033.75;;;19.46;41.22
56668;BME280;42542;48.360;10.958;2022-09-02T11:01:42;96044.88;;;19.63;42.56
56668;BME280;42542;48.360;10.958;2022-09-02T11:04:51;96042.53;;;19.67;42.52
56668;BME280;42542;48.360;10.958;2022-09-02T11:08:07;96039.25;;;19.65;42.33
56668;BME280;42542;48.360;10.958;2022-09-02T11:11:16;96030.50;;;19.63;41.92
56668;BME280;42542;48.360;10.958;2022-09-02T11:14:27;96029.22;;;19.65;41.90
56668;BME280;42542;48.360;10.958;2022-09-02T11:17:54;96028.84;;;19.62;41.64
56668;BME280;42542;48.360;10.958;2022-09-02T11:21:08;96025.91;;;19.63;42.21
56668;BME280;42542;48.360;10.958;2022-09-02T11:27:44;96021.25;;;19.70;41.36
56668;BME280;42542;48.360;10.958;2022-09-02T11:30:54;96018.88;;;19.80;42.69
56668;BME280;42542;48.360;10.958;2022-09-02T11:34:18;96021.31;;;19.82;40.94
56668;BME280;42542;48.360;10.958;2022-09-02T11:41:01;96023.84;;;20.02;40.55
56668;BME280;42542;48.360;10.958;2022-09-02T11:51:24;96021.13;;;20.02;40.85
56668;BME280;42542;48.360;10.958;2022-09-02T11:54:34;96005.38;;;20.10;42.37
56668;BME280;42542;48.360;10.958;2022-09-02T11:57:37;96007.41;;;20.15;42.69
56668;BME280;42542;48.360;10.958;2022-09-02T12:07:48;96009.13;;;20.27;38.99
56668;BME280;42542;48.360;10.958;2022-09-02T12:13:52;96007.19;;;20.35;40.89
56668;BME280;42542;48.360;10.958;2022-09-02T12:17:02;96020.59;;;20.48;41.87
56668;BME280;42542;48.360;10.958;2022-09-02T12:20:08;96011.88;;;20.46;39.07
56668;BME280;42542;48.360;10.958;2022-09-02T12:29:54;96014.34;;;20.47;38.68
56668;BME280;42542;48.360;10.958;2022-09-02T12:33:02;96007.94;;;20.60;39.73
56668;BME280;42542;48.360;10.958;2022-09-02T12:36:07;95999.13;;;20.76;40.15
56668;BME280;42542;48.360;10.958;2022-09-02T12:42:41;96003.06;;;20.92;40.73
56668;BME280;42542;48.360;10.958;2022-09-02T12:45:49;95987.25;;;20.89;40.76
56668;BME280;42542;48.360;10.958;2022-09-02T12:49:08;95996.47;;;20.88;40.99
56668;BME280;42542;48.360;10.958;2022-09-02T12:55:35;95985.94;;;20.91;41.72
56668;BME280;42542;48.360;10.958;2022-09-02T12:58:44;95981.63;;;21.02;41.04
56668;BME280;42542;48.360;10.958;2022-09-02T13:01:55;95973.19;;;21.03;40.99
56668;BME280;42542;48.360;10.958;2022-09-02T13:15:22;95964.97;;;21.10;40.90
56668;BME280;42542;48.360;10.958;2022-09-02T13:29:19;95950.59;;;21.33;40.39
56668;BME280;42542;48.360;10.958;2022-09-02T13:32:31;95942.06;;;21.41;40.63
56668;BME280;42542;48.360;10.958;2022-09-02T13:40:23;95945.03;;;21.74;40.82
56668;BME280;42542;48.360;10.958;2022-09-02T13:43:26;95947.59;;;21.93;40.49
56668;BME280;42542;48.360;10.958;2022-09-02T13:50:25;95934.38;;;22.36;39.90
56668;BME280;42542;48.360;10.958;2022-09-02T13:53:35;95938.16;;;22.64;38.92
56668;BME280;42542;48.360;10.958;2022-09-02T13:57:00;95942.56;;;22.93;38.40
56668;BME280;42542;48.360;10.958;2022-09-02T14:00:03;95931.34;;;23.23;38.22
56668;BME280;42542;48.360;10.958;2022-09-02T14:03:17;95938.09;;;23.70;37.73
56668;BME280;42542;48.360;10.958;2022-09-02T14:06:22;95938.16;;;24.14;37.53
56668;BME280;42542;48.360;10.958;2022-09-02T14:09:28;95935.56;;;24.46;36.99
56668;BME280;42542;48.360;10.958;2022-09-02T14:12:34;95929.81;;;24.69;35.58
56668;BME280;42542;48.360;10.958;2022-09-02T14:15:36;95927.06;;;24.91;35.31
56668;BME280;42542;48.360;10.958;2022-09-02T14:18:38;95918.00;;;25.17;35.33
56668;BME280;42542;48.360;10.958;2022-09-02T14:21:48;95916.03;;;25.45;34.82
56668;BME280;42542;48.360;10.958;2022-09-02T14:24:51;95909.34;;;25.62;34.60
56668;BME280;42542;48.360;10.958;2022-09-02T14:32:26;95892.94;;;26.15;33.76
56668;BME280;42542;48.360;10.958;2022-09-02T14:35:29;95888.91;;;26.32;33.45
56668;BME280;42542;48.360;10.958;2022-09-02T14:39:06;95888.38;;;26.46;32.76
56668;BME280;42542;48.360;10.958;2022-09-02T14:41:57;95886.81;;;26.65;32.77
56668;BME280;42542;48.360;10.958;2022-09-02T14:44:59;95876.97;;;26.79;32.50
56668;BME280;42542;48.360;10.958;2022-09-02T14:52:57;95867.94;;;27.04;31.89
56668;BME280;42542;48.360;10.958;2022-09-02T14:56:00;95875.94;;;27.15;31.69
56668;BME280;42542;48.360;10.958;2022-09-02T14:59:04;95864.94;;;27.26;31.16
56668;BME280;42542;48.360;10.958;2022-09-02T15:02:06;95870.97;;;27.33;30.95
56668;BME280;42542;48.360;10.958;2022-09-02T15:05:11;95869.03;;;27.38;30.72
56668;BME280;42542;48.360;10.958;2022-09-02T15:08:17;95861.91;;;27.42;30.68
56668;BME280;42542;48.360;10.958;2022-09-02T15:11:19;95860.53;;;27.50;30.59
56668;BME280;42542;48.360;10.958;2022-09-02T15:14:21;95863.56;;;27.53;30.28
56668;BME280;42542;48.360;10.958;2022-09-02T15:17:23;95852.00;;;27.62;30.64
56668;BME280;42542;48.360;10.958;2022-09-02T15:20:25;95860.47;;;27.75;30.36
56668;BME280;42542;48.360;10.958;2022-09-02T15:23:29;95862.88;;;27.97;30.18
56668;BME280;42542;48.360;10.958;2022-09-02T15:26:35;95850.47;;;28.10;30.07
56668;BME280;42542;48.360;10.958;2022-09-02T15:29:37;95860.91;;;28.18;29.42
56668;BME280;42542;48.360;10.958;2022-09-02T15:32:40;95855.72;;;28.16;29.40
56668;BME280;42542;48.360;10.958;2022-09-02T15:35:42;95858.16;;;28.13;29.42
56668;BME280;42542;48.360;10.958;2022-09-02T15:38:43;95859.81;;;28.19;29.75
56668;BME280;42542;48.360;10.958;2022-09-02T15:41:45;95862.56;;;28.24;29.42
56668;BME280;42542;48.360;10.958;2022-09-02T15:44:53;95851.56;;;28.24;29.35
56668;BME280;42542;48.360;10.958;2022-09-02T15:47:56;95857.88;;;28.19;29.17
56668;BME280;42542;48.360;10.958;2022-09-02T15:51:09;95856.25;;;28.13;28.86
56668;BME280;42542;48.360;10.958;2022-09-02T15:54:13;95850.78;;;28.03;29.14
56668;BME280;42542;48.360;10.958;2022-09-02T15:57:19;95842.34;;;27.84;29.02
56668;BME280;42542;48.360;10.958;2022-09-02T16:00:22;95848.38;;;27.86;29.26
56668;BME280;42542;48.360;10.958;2022-09-02T16:03:29;95853.09;;;27.71;29.46
56668;BME280;42542;48.360;10.958;2022-09-02T16:06:33;95855.88;;;27.55;29.49
56668;BME280;42542;48.360;10.958;2022-09-02T16:09:45;95864.38;;;27.44;29.65
56668;BME280;42542;48.360;10.958;2022-09-02T16:13:30;95853.13;;;27.35;29.92
56668;BME280;42542;48.360;10.958;2022-09-02T16:17:16;95855.59;;;27.11;30.68
56668;BME280;42542;48.360;10.958;2022-09-02T16:20:20;95852.28;;;26.84;30.50
56668;BME280;42542;48.360;10.958;2022-09-02T16:23:23;95852.78;;;26.51;30.70
56668;BME280;42542;48.360;10.958;2022-09-02T16:26:30;95851.00;;;26.14;31.77
56668;BME280;42542;48.360;10.958;2022-09-02T16:29:32;95858.25;;;25.83;32.10
56668;BME280;42542;48.360;10.958;2022-09-02T16:32:37;95855.53;;;25.41;32.20
56668;BME280;42542;48.360;10.958;2022-09-02T16:35:40;95861.59;;;25.11;32.71
56668;BME280;42542;48.360;10.958;2022-09-02T16:38:42;95861.91;;;24.88;34.06
56668;BME280;42542;48.360;10.958;2022-09-02T16:41:46;95865.78;;;24.60;34.54
56668;BME280;42542;48.360;10.958;2022-09-02T16:44:48;95863.03;;;24.33;34.36
56668;BME280;42542;48.360;10.958;2022-09-02T16:47:54;95866.78;;;24.05;34.45
56668;BME280;42542;48.360;10.958;2022-09-02T16:51:00;95860.69;;;23.77;34.89
56668;BME280;42542;48.360;10.958;2022-09-02T16:54:03;95849.41;;;23.51;35.21
56668;BME280;42542;48.360;10.958;2022-09-02T16:57:05;95845.31;;;23.32;35.84
56668;BME280;42542;48.360;10.958;2022-09-02T17:00:07;95847.22;;;23.15;36.54
56668;BME280;42542;48.360;10.958;2022-09-02T17:03:11;95839.22;;;22.91;36.53
56668;BME280;42542;48.360;10.958;2022-09-02T17:06:13;95841.97;;;22.75;36.85
56668;BME280;42542;48.360;10.958;2022-09-02T17:09:17;95840.84;;;22.59;37.05
56668;BME280;42542;48.360;10.958;2022-09-02T17:12:19;95837.84;;;22.44;37.77
56668;BME280;42542;48.360;10.958;2022-09-02T17:15:24;95835.91;;;22.28;37.89
56668;BME280;42542;48.360;10.958;2022-09-02T17:18:31;95842.72;;;22.13;38.22
56668;BME280;42542;48.360;10.958;2022-09-02T17:21:44;95842.41;;;21.98;39.29
56668;BME280;42542;48.360;10.958;2022-09-02T17:24:47;95827.78;;;21.76;39.16
56668;BME280;42542;48.360;10.958;2022-09-02T17:27:54;95841.44;;;21.64;39.43
56668;BME280;42542;48.360;10.958;2022-09-02T17:30:56;95845.25;;;21.52;40.56
56668;BME280;42542;48.360;10.958;2022-09-02T17:34:01;95841.13;;;21.37;40.24
56668;BME280;42542;48.360;10.958;2022-09-02T17:37:04;95851.66;;;21.22;41.43
56668;BME280;42542;48.360;10.958;2022-09-02T17:40:08;95851.50;;;21.05;41.75
56668;BME280;42542;48.360;10.958;2022-09-02T17:43:32;95852.47;;;20.88;41.89
56668;BME280;42542;48.360;10.958;2022-09-02T17:46:34;95845.81;;;20.72;41.61
56668;BME280;42542;48.360;10.958;2022-09-02T17:49:37;95839.78;;;20.58;41.90
56668;BME280;42542;48.360;10.958;2022-09-02T17:52:41;95839.38;;;20.43;42.81
56668;BME280;42542;48.360;10.958;2022-09-02T17:55:49;95855.78;;;20.37;43.31
56668;BME280;42542;48.360;10.958;2022-09-02T18:02:19;95866.63;;;20.07;44.46
56668;BME280;42542;48.360;10.958;2022-09-02T18:05:29;95859.94;;;19.91;44.82
56668;BME280;42542;48.360;10.958;2022-09-02T18:08:54;95869.06;;;19.78;45.71
56668;BME280;42542;48.360;10.958;2022-09-02T18:11:56;95880.53;;;19.62;45.95
56668;BME280;42542;48.360;10.958;2022-09-02T18:15:00;95873.81;;;19.46;46.50
56668;BME280;42542;48.360;10.958;2022-09-02T18:18:02;95882.06;;;19.33;46.63
56668;BME280;42542;48.360;10.958;2022-09-02T18:21:15;95878.88;;;19.18;47.46
56668;BME280;42542;48.360;10.958;2022-09-02T18:31:40;95883.00;;;18.78;48.75
56668;BME280;42542;48.360;10.958;2022-09-02T18:48:04;95884.44;;;18.17;50.45
56668;BME280;42542;48.360;10.958;2022-09-02T18:54:20;95899.50;;;18.07;51.25
56668;BME280;42542;48.360;10.958;2022-09-02T18:57:35;95903.91;;;17.94;51.82
56668;BME280;42542;48.360;10.958;2022-09-02T19:00:44;95907.91;;;17.85;52.40
56668;BME280;42542;48.360;10.958;2022-09-02T19:03:52;95894.03;;;17.69;52.75